• Join FlightAware (Why Join?)
  • Login
  • US Flag 
11:16AM EDT


 

Airport Tracker/Info


-or-


 

Live Flight TrackerFlight Track Log ✈ IBE6400 ✈ 24-Apr-2013 ✈ LEMD / MAD - LEBL / BCN

Flight Track Log - Related Links

Times and Time Zones

All times are in EDT time to prevent confusion due to time zone crossing. See the IBE6400 flight status page for this flight to view local times or setup timezone preferences in your user account.

Time Position Orientation Groundspeed Altitude Reporting Facility
EDT Latitude Longitude Course Direction KTS MPH feet Rate Location/Type
02:57AM 40.7250 -2.1374 77° East  Level Estimated
02:58AM 40.7452 -2.0069 78° East  Level Estimated
02:59AM 40.7652 -1.8764 79° East  Level Estimated
03:00AM 40.7850 -1.7458 79° East  Level Estimated
03:01AM 40.8048 -1.6152 79° East  Level Estimated
03:02AM 40.8243 -1.4844 79° East  Level Estimated
03:03AM 40.8438 -1.3536 79° East  Level Estimated
03:04AM 40.8630 -1.2227 79° East  Level Estimated
03:05AM 40.8822 -1.0917 79° East  Level Estimated
03:06AM 40.9012 -0.9607 79° East  Level Estimated
03:07AM 40.9200 -0.8296 79° East  Level Estimated
03:08AM 40.9387 -0.6984 79° East  Level Estimated
03:09AM 40.9572 -0.5671 79° East  Level Estimated
03:10AM 40.9756 -0.4358 79° East  Level Estimated
03:11AM 40.9939 -0.3043 80° East  Level Estimated
03:12AM 41.0119 -0.1728 80° East  Level Estimated
03:13AM 41.0299 -0.0413 80° East  Level Estimated
03:14AM 41.0477 0.0903 80° East  Level Estimated
03:15AM 41.0653 0.2220 80° East  Level Estimated
03:16AM 41.0828 0.3538 80° East  Level Estimated
03:17AM 41.1001 0.4857 80° East  Level Estimated
03:18AM 41.1173 0.6176 80° East  Level Estimated
03:19AM 41.1344 0.7495 80° East  Level Estimated
03:20AM 41.1513 0.8816 80° East  Level Estimated
03:21AM 41.1680 1.0137 80° East  Level Estimated
03:22AM 41.1846 1.1459 80° East  Level Estimated
03:23AM 41.2010 1.2781 81° East  Level Estimated
03:24AM 41.2173 1.4105 81° East  Level Estimated
03:25AM 41.2334 1.5429 81° East  Level Estimated
03:26AM 41.2494 1.6753 81° East  Level Estimated
03:27AM 41.2652 1.8078 81° East  Level Estimated
03:28AM 41.2809 1.9404 81° East  Level Estimated
03:29AM 41.2965 2.0730 81° East  Level Estimated
03:30AM 41.2971 2.0785 81° East  Level Estimated
03:31AM 41.2971 2.0785 124° Southeast  Level Estimated
03:32AM 41.2971 2.0785 124° Southeast  Level Estimated
03:33AM 41.2971 2.0785 124° Southeast  Level Estimated
03:34AM 41.2971 2.0785 124° Southeast  Level Estimated
03:35AM 41.2971 2.0785 124° Southeast  Level Estimated
03:36AM 41.2971 2.0785 124° Southeast  Level Estimated
03:37AM 41.2971 2.0785 124° Southeast  Level Estimated
03:38AM 41.2971 2.0785 124° Southeast  Level Estimated
03:39AM 41.2971 2.0785 124° Southeast  Level Estimated
03:40AM 41.2971 2.0785 124° Southeast  Level Estimated
03:41AM 41.2971 2.0785 124° Southeast  Level Estimated
03:42AM 41.2971 2.0785 124° Southeast  Level Estimated
03:43AM 41.2971 2.0785 124° Southeast  Level Estimated
03:44AM 41.2971 2.0785 124° Southeast  Level Estimated
03:45AM 41.2971 2.0785 124° Southeast  Level Estimated